sensor_id;sensor_type;location;lat;lon;timestamp;pressure;altitude;pressure_sealevel;temperature;humidity
9189;BME280;34313;50.780;6.084;2023-04-30T00:00:27;100144.88;;;7.13;100.00
9189;BME280;34313;50.780;6.084;2023-04-30T00:02:52;100133.88;;;7.03;100.00
9189;BME280;34313;50.780;6.084;2023-04-30T00:05:17;100136.59;;;7.00;100.00
9189;BME280;34313;50.780;6.084;2023-04-30T00:07:42;100141.13;;;6.95;100.00
9189;BME280;34313;50.780;6.084;2023-04-30T00:10:09;100135.13;;;6.91;100.00
9189;BME280;34313;50.780;6.084;2023-04-30T00:12:35;100143.94;;;6.89;100.00
9189;BME280;34313;50.780;6.084;2023-04-30T00:15:00;100140.56;;;6.85;100.00
9189;BME280;34313;50.780;6.084;2023-04-30T00:17:26;100133.63;;;6.84;100.00
9189;BME280;34313;50.780;6.084;2023-04-30T00:19:51;100136.44;;;6.78;100.00
9189;BME280;34313;50.780;6.084;2023-04-30T00:22:16;100136.59;;;6.73;100.00
9189;BME280;34313;50.780;6.084;2023-04-30T00:24:42;100127.91;;;6.71;100.00
9189;BME280;34313;50.780;6.084;2023-04-30T00:27:07;100137.66;;;6.66;100.00
9189;BME280;34313;50.780;6.084;2023-04-30T00:29:32;100137.75;;;6.65;100.00
9189;BME280;34313;50.780;6.084;2023-04-30T00:31:58;100138.72;;;6.60;100.00
9189;BME280;34313;50.780;6.084;2023-04-30T00:34:23;100132.75;;;6.57;100.00
9189;BME280;34313;50.780;6.084;2023-04-30T00:36:48;100131.84;;;6.58;100.00
9189;BME280;34313;50.780;6.084;2023-04-30T00:39:13;100128.47;;;6.54;100.00
9189;BME280;34313;50.780;6.084;2023-04-30T00:41:40;100126.13;;;6.45;100.00
9189;BME280;34313;50.780;6.084;2023-04-30T00:44:05;100132.16;;;6.49;100.00
9189;BME280;34313;50.780;6.084;2023-04-30T00:46:30;100131.44;;;6.43;100.00
9189;BME280;34313;50.780;6.084;2023-04-30T00:48:56;100130.75;;;6.37;100.00
9189;BME280;34313;50.780;6.084;2023-04-30T00:51:21;100144.91;;;6.31;100.00
9189;BME280;34313;50.780;6.084;2023-04-30T00:53:47;100141.56;;;6.26;100.00
9189;BME280;34313;50.780;6.084;2023-04-30T00:56:13;100136.31;;;6.26;100.00
9189;BME280;34313;50.780;6.084;2023-04-30T00:58:40;100142.53;;;6.22;100.00
9189;BME280;34313;50.780;6.084;2023-04-30T01:01:05;100139.06;;;6.21;100.00
9189;BME280;34313;50.780;6.084;2023-04-30T01:03:31;100149.47;;;6.24;100.00
9189;BME280;34313;50.780;6.084;2023-04-30T01:05:56;100135.66;;;6.19;100.00
9189;BME280;34313;50.780;6.084;2023-04-30T01:08:21;100136.75;;;6.12;100.00
9189;BME280;34313;50.780;6.084;2023-04-30T01:16:12;100134.63;;;5.94;100.00
9189;BME280;34313;50.780;6.084;2023-04-30T01:18:47;100130.34;;;5.91;100.00
9189;BME280;34313;50.780;6.084;2023-04-30T01:21:14;100128.66;;;5.88;100.00
9189;BME280;34313;50.780;6.084;2023-04-30T01:26:59;100130.53;;;5.83;100.00
9189;BME280;34313;50.780;6.084;2023-04-30T01:29:31;100133.13;;;5.85;100.00
9189;BME280;34313;50.780;6.084;2023-04-30T01:31:56;100127.13;;;5.81;100.00
9189;BME280;34313;50.780;6.084;2023-04-30T01:34:22;100121.94;;;5.80;100.00
9189;BME280;34313;50.780;6.084;2023-04-30T01:39:56;100114.19;;;5.77;100.00
9189;BME280;34313;50.780;6.084;2023-04-30T01:42:34;100126.44;;;5.75;100.00
9189;BME280;34313;50.780;6.084;2023-04-30T01:45:21;100129.19;;;5.70;100.00
9189;BME280;34313;50.780;6.084;2023-04-30T01:51:15;100127.72;;;5.60;100.00
9189;BME280;34313;50.780;6.084;2023-04-30T01:53:44;100127.00;;;5.55;100.00
9189;BME280;34313;50.780;6.084;2023-04-30T01:56:17;100134.88;;;5.53;100.00
9189;BME280;34313;50.780;6.084;2023-04-30T01:58:46;100133.16;;;5.52;100.00
9189;BME280;34313;50.780;6.084;2023-04-30T02:01:26;100135.84;;;5.51;100.00
9189;BME280;34313;50.780;6.084;2023-04-30T02:03:52;100137.53;;;5.52;100.00
9189;BME280;34313;50.780;6.084;2023-04-30T02:06:17;100140.22;;;5.48;100.00
9189;BME280;34313;50.780;6.084;2023-04-30T02:08:42;100140.28;;;5.47;100.00
9189;BME280;34313;50.780;6.084;2023-04-30T02:11:08;100134.22;;;5.45;100.00
9189;BME280;34313;50.780;6.084;2023-04-30T02:13:33;100141.25;;;5.43;100.00
9189;BME280;34313;50.780;6.084;2023-04-30T02:15:58;100142.19;;;5.42;100.00
9189;BME280;34313;50.780;6.084;2023-04-30T02:18:24;100142.25;;;5.39;100.00
9189;BME280;34313;50.780;6.084;2023-04-30T02:20:49;100134.56;;;5.33;100.00
9189;BME280;34313;50.780;6.084;2023-04-30T02:23:14;100143.16;;;5.36;100.00
9189;BME280;34313;50.780;6.084;2023-04-30T02:25:40;100142.41;;;5.33;100.00
9189;BME280;34313;50.780;6.084;2023-04-30T02:28:05;100146.00;;;5.28;100.00
9189;BME280;34313;50.780;6.084;2023-04-30T02:30:31;100139.94;;;5.28;100.00
9189;BME280;34313;50.780;6.084;2023-04-30T02:32:56;100145.16;;;5.28;100.00
9189;BME280;34313;50.780;6.084;2023-04-30T02:35:21;100142.53;;;5.28;100.00
9189;BME280;34313;50.780;6.084;2023-04-30T02:37:47;100141.78;;;5.23;100.00
9189;BME280;34313;50.780;6.084;2023-04-30T02:40:12;100139.97;;;5.26;100.00
9189;BME280;34313;50.780;6.084;2023-04-30T02:42:37;100145.22;;;5.25;100.00
9189;BME280;34313;50.780;6.084;2023-04-30T02:45:03;100133.16;;;5.21;100.00
9189;BME280;34313;50.780;6.084;2023-04-30T02:47:28;100139.22;;;5.21;100.00
9189;BME280;34313;50.780;6.084;2023-04-30T02:49:54;100143.53;;;5.22;100.00
9189;BME280;34313;50.780;6.084;2023-04-30T02:52:19;100137.50;;;5.20;100.00
9189;BME280;34313;50.780;6.084;2023-04-30T02:54:44;100135.88;;;5.16;100.00
9189;BME280;34313;50.780;6.084;2023-04-30T02:57:09;100135.88;;;5.16;100.00
9189;BME280;34313;50.780;6.084;2023-04-30T02:59:35;100131.63;;;5.12;100.00
9189;BME280;34313;50.780;6.084;2023-04-30T03:02:00;100130.78;;;5.10;100.00
9189;BME280;34313;50.780;6.084;2023-04-30T03:04:25;100125.72;;;5.04;100.00
9189;BME280;34313;50.780;6.084;2023-04-30T03:06:51;100124.91;;;5.02;100.00
9189;BME280;34313;50.780;6.084;2023-04-30T03:09:16;100120.66;;;4.98;100.00
9189;BME280;34313;50.780;6.084;2023-04-30T03:11:42;100124.25;;;4.93;100.00
9189;BME280;34313;50.780;6.084;2023-04-30T03:14:07;100116.50;;;4.89;100.00
9189;BME280;34313;50.780;6.084;2023-04-30T03:16:32;100121.72;;;4.89;100.00
9189;BME280;34313;50.780;6.084;2023-04-30T03:18:57;100120.75;;;4.95;100.00
9189;BME280;34313;50.780;6.084;2023-04-30T03:21:23;100119.97;;;4.91;100.00
9189;BME280;34313;50.780;6.084;2023-04-30T03:23:48;100121.59;;;4.95;100.00
9189;BME280;34313;50.780;6.084;2023-04-30T03:26:13;100114.75;;;4.91;100.00
9189;BME280;34313;50.780;6.084;2023-04-30T03:28:39;100119.19;;;4.87;100.00
9189;BME280;34313;50.780;6.084;2023-04-30T03:31:04;100114.84;;;4.86;100.00
9189;BME280;34313;50.780;6.084;2023-04-30T03:33:33;100127.03;;;4.87;100.00
9189;BME280;34313;50.780;6.084;2023-04-30T03:35:58;100129.69;;;4.86;100.00
9189;BME280;34313;50.780;6.084;2023-04-30T03:38:24;100129.72;;;4.84;100.00
9189;BME280;34313;50.780;6.084;2023-04-30T03:40:49;100132.44;;;4.78;100.00
9189;BME280;34313;50.780;6.084;2023-04-30T03:43:14;100130.84;;;4.72;100.00
9189;BME280;34313;50.780;6.084;2023-04-30T03:45:40;100129.25;;;4.67;100.00
9189;BME280;34313;50.780;6.084;2023-04-30T03:48:05;100131.16;;;4.60;100.00
9189;BME280;34313;50.780;6.084;2023-04-30T03:50:30;100132.91;;;4.60;100.00
9189;BME280;34313;50.780;6.084;2023-04-30T03:52:56;100135.53;;;4.60;100.00
9189;BME280;34313;50.780;6.084;2023-04-30T03:55:21;100134.56;;;4.62;100.00
9189;BME280;34313;50.780;6.084;2023-04-30T03:57:47;100123.19;;;4.66;100.00
9189;BME280;34313;50.780;6.084;2023-04-30T04:00:12;100133.50;;;4.71;100.00
9189;BME280;34313;50.780;6.084;2023-04-30T04:02:38;100126.72;;;4.64;100.00
9189;BME280;34313;50.780;6.084;2023-04-30T04:05:04;100124.19;;;4.59;100.00
9189;BME280;34313;50.780;6.084;2023-04-30T04:07:29;100127.69;;;4.60;100.00
9189;BME280;34313;50.780;6.084;2023-04-30T04:09:55;100130.28;;;4.61;100.00
9189;BME280;34313;50.780;6.084;2023-04-30T04:12:20;100125.09;;;4.58;100.00
9189;BME280;34313;50.780;6.084;2023-04-30T04:14:45;100125.94;;;4.60;100.00
9189;BME280;34313;50.780;6.084;2023-04-30T04:17:11;100126.75;;;4.62;100.00
9189;BME280;34313;50.780;6.084;2023-04-30T04:19:36;100124.09;;;4.64;100.00
9189;BME280;34313;50.780;6.084;2023-04-30T04:22:01;100127.50;;;4.67;100.00
9189;BME280;34313;50.780;6.084;2023-04-30T04:24:27;100127.44;;;4.70;100.00
9189;BME280;34313;50.780;6.084;2023-04-30T04:26:52;100124.69;;;4.75;100.00
9189;BME280;34313;50.780;6.084;2023-04-30T04:29:18;100127.13;;;4.83;100.00
9189;BME280;34313;50.780;6.084;2023-04-30T04:31:43;100132.16;;;4.90;100.00
9189;BME280;34313;50.780;6.084;2023-04-30T04:34:08;100132.81;;;4.99;100.00
9189;BME280;34313;50.780;6.084;2023-04-30T04:36:34;100137.78;;;5.09;100.00
9189;BME280;34313;50.780;6.084;2023-04-30T04:39:00;100140.13;;;5.19;100.00
9189;BME280;34313;50.780;6.084;2023-04-30T04:41:29;100136.41;;;5.29;100.00
9189;BME280;34313;50.780;6.084;2023-04-30T04:43:54;100136.03;;;5.43;100.00
9189;BME280;34313;50.780;6.084;2023-04-30T04:46:21;100147.84;;;5.58;100.00
9189;BME280;34313;50.780;6.084;2023-04-30T04:48:47;100140.53;;;5.69;100.00
9189;BME280;34313;50.780;6.084;2023-04-30T04:51:12;100137.53;;;5.83;100.00
9189;BME280;34313;50.780;6.084;2023-04-30T04:53:38;100150.59;;;6.16;100.00
9189;BME280;34313;50.780;6.084;2023-04-30T04:56:04;100151.34;;;6.76;100.00
9189;BME280;34313;50.780;6.084;2023-04-30T04:58:29;100145.91;;;7.84;100.00
9189;BME280;34313;50.780;6.084;2023-04-30T05:00:55;100141.53;;;9.19;100.00
9189;BME280;34313;50.780;6.084;2023-04-30T05:03:21;100146.59;;;10.78;100.00
9189;BME280;34313;50.780;6.084;2023-04-30T05:05:46;100129.25;;;12.27;100.00
9189;BME280;34313;50.780;6.084;2023-04-30T05:08:12;100138.19;;;13.63;100.00
9189;BME280;34313;50.780;6.084;2023-04-30T05:10:37;100146.31;;;15.13;100.00
9189;BME280;34313;50.780;6.084;2023-04-30T05:13:02;100138.03;;;16.34;87.69
9189;BME280;34313;50.780;6.084;2023-04-30T05:15:28;100136.63;;;17.49;72.01
9189;BME280;34313;50.780;6.084;2023-04-30T05:17:53;100141.13;;;18.39;61.99
9189;BME280;34313;50.780;6.084;2023-04-30T05:20:18;100146.41;;;19.37;59.29
9189;BME280;34313;50.780;6.084;2023-04-30T05:22:44;100137.72;;;20.28;54.04
9189;BME280;34313;50.780;6.084;2023-04-30T05:25:09;100148.00;;;21.12;49.05
9189;BME280;34313;50.780;6.084;2023-04-30T05:27:35;100143.41;;;21.71;47.07
9189;BME280;34313;50.780;6.084;2023-04-30T05:30:00;100143.56;;;22.62;43.67
9189;BME280;34313;50.780;6.084;2023-04-30T05:32:26;100143.31;;;22.38;40.60
9189;BME280;34313;50.780;6.084;2023-04-30T05:34:52;100148.91;;;22.90;40.27
9189;BME280;34313;50.780;6.084;2023-04-30T05:37:17;100150.03;;;23.41;39.13
9189;BME280;34313;50.780;6.084;2023-04-30T05:39:44;100140.75;;;24.23;37.59
9189;BME280;34313;50.780;6.084;2023-04-30T05:42:09;100139.63;;;25.17;35.75
9189;BME280;34313;50.780;6.084;2023-04-30T05:44:34;100139.28;;;25.61;35.12
9189;BME280;34313;50.780;6.084;2023-04-30T05:47:00;100141.63;;;25.73;32.94
9189;BME280;34313;50.780;6.084;2023-04-30T05:49:26;100147.56;;;25.60;33.19
9189;BME280;34313;50.780;6.084;2023-04-30T05:51:51;100144.28;;;24.66;33.85
9189;BME280;34313;50.780;6.084;2023-04-30T05:54:16;100155.13;;;23.27;36.43
9189;BME280;34313;50.780;6.084;2023-04-30T05:56:42;100149.72;;;22.91;36.97
9189;BME280;34313;50.780;6.084;2023-04-30T05:59:07;100153.19;;;22.83;36.97
9189;BME280;34313;50.780;6.084;2023-04-30T06:01:32;100152.41;;;22.73;37.53
9189;BME280;34313;50.780;6.084;2023-04-30T06:03:58;100156.03;;;23.17;37.06
9189;BME280;34313;50.780;6.084;2023-04-30T06:06:25;100153.00;;;22.66;37.15
9189;BME280;34313;50.780;6.084;2023-04-30T06:08:52;100160.03;;;20.57;40.25
9189;BME280;34313;50.780;6.084;2023-04-30T06:11:17;100152.06;;;20.96;40.16
9189;BME280;34313;50.780;6.084;2023-04-30T06:13:46;100155.97;;;22.18;37.97
9189;BME280;34313;50.780;6.084;2023-04-30T06:16:11;100150.94;;;23.50;36.17
9189;BME280;34313;50.780;6.084;2023-04-30T06:18:36;100150.25;;;23.48;35.91
9189;BME280;34313;50.780;6.084;2023-04-30T06:21:02;100147.69;;;22.84;36.54
9189;BME280;34313;50.780;6.084;2023-04-30T06:23:27;100142.91;;;23.32;36.50
9189;BME280;34313;50.780;6.084;2023-04-30T06:25:52;100138.03;;;24.14;34.01
9189;BME280;34313;50.780;6.084;2023-04-30T06:28:18;100133.50;;;24.15;34.63
9189;BME280;34313;50.780;6.084;2023-04-30T06:30:43;100141.50;;;23.72;35.24
9189;BME280;34313;50.780;6.084;2023-04-30T06:33:08;100145.22;;;21.80;37.30
9189;BME280;34313;50.780;6.084;2023-04-30T06:35:34;100147.97;;;21.41;38.69
9189;BME280;34313;50.780;6.084;2023-04-30T06:38:00;100138.13;;;20.83;39.45
9189;BME280;34313;50.780;6.084;2023-04-30T06:40:25;100147.38;;;19.57;41.75
9189;BME280;34313;50.780;6.084;2023-04-30T06:42:50;100156.16;;;19.06;43.89
9189;BME280;34313;50.780;6.084;2023-04-30T06:45:15;100145.47;;;19.69;42.72
9189;BME280;34313;50.780;6.084;2023-04-30T06:47:41;100144.88;;;19.65;43.11
9189;BME280;34313;50.780;6.084;2023-04-30T06:50:07;100133.88;;;19.80;42.91
9189;BME280;34313;50.780;6.084;2023-04-30T06:52:33;100148.88;;;18.97;44.06
9189;BME280;34313;50.780;6.084;2023-04-30T06:54:58;100153.38;;;18.52;45.25
9189;BME280;34313;50.780;6.084;2023-04-30T06:57:25;100153.53;;;17.94;47.25
9189;BME280;34313;50.780;6.084;2023-04-30T06:59:51;100147.47;;;18.04;47.33
9189;BME280;34313;50.780;6.084;2023-04-30T07:02:18;100150.22;;;17.57;48.54
9189;BME280;34313;50.780;6.084;2023-04-30T07:04:43;100153.75;;;16.74;51.33
9189;BME280;34313;50.780;6.084;2023-04-30T07:07:09;100156.88;;;16.68;51.74
9189;BME280;34313;50.780;6.084;2023-04-30T07:09:34;100156.41;;;17.80;49.12
9189;BME280;34313;50.780;6.084;2023-04-30T07:12:00;100156.06;;;18.41;48.60
9189;BME280;34313;50.780;6.084;2023-04-30T07:14:26;100155.09;;;18.97;46.54
9189;BME280;34313;50.780;6.084;2023-04-30T07:16:52;100157.06;;;20.00;44.65
9189;BME280;34313;50.780;6.084;2023-04-30T07:19:17;100156.09;;;21.79;42.48
9189;BME280;34313;50.780;6.084;2023-04-30T07:21:43;100151.84;;;23.15;39.13
9189;BME280;34313;50.780;6.084;2023-04-30T07:24:08;100142.19;;;24.01;37.33
9189;BME280;34313;50.780;6.084;2023-04-30T07:26:34;100146.34;;;24.72;36.06
9189;BME280;34313;50.780;6.084;2023-04-30T07:29:00;100140.66;;;25.33;34.77
9189;BME280;34313;50.780;6.084;2023-04-30T07:31:25;100139.28;;;24.79;35.25
9189;BME280;34313;50.780;6.084;2023-04-30T07:33:51;100140.63;;;25.00;34.96
9189;BME280;34313;50.780;6.084;2023-04-30T07:36:16;100138.47;;;25.28;34.34
9189;BME280;34313;50.780;6.084;2023-04-30T07:38:41;100144.63;;;27.20;31.44
9189;BME280;34313;50.780;6.084;2023-04-30T07:41:07;100133.47;;;28.93;29.38
9189;BME280;34313;50.780;6.084;2023-04-30T07:43:34;100131.06;;;29.05;28.44
9189;BME280;34313;50.780;6.084;2023-04-30T07:45:59;100133.22;;;31.18;26.56
9189;BME280;34313;50.780;6.084;2023-04-30T07:48:25;100127.56;;;31.59;25.76
9189;BME280;34313;50.780;6.084;2023-04-30T07:50:50;100130.69;;;31.43;25.87
9189;BME280;34313;50.780;6.084;2023-04-30T07:53:15;100122.88;;;32.84;24.06
9189;BME280;34313;50.780;6.084;2023-04-30T07:55:41;100124.41;;;31.29;25.58
9189;BME280;34313;50.780;6.084;2023-04-30T07:58:06;100120.84;;;31.55;24.91
9189;BME280;34313;50.780;6.084;2023-04-30T08:00:31;100126.28;;;31.55;24.60
9189;BME280;34313;50.780;6.084;2023-04-30T08:02:57;100117.91;;;33.56;22.94
9189;BME280;34313;50.780;6.084;2023-04-30T08:05:24;100131.03;;;33.66;22.13
9189;BME280;34313;50.780;6.084;2023-04-30T08:07:49;100123.53;;;34.65;21.01
9189;BME280;34313;50.780;6.084;2023-04-30T08:10:15;100127.44;;;32.13;23.33
9189;BME280;34313;50.780;6.084;2023-04-30T08:12:40;100129.53;;;32.17;23.22
9189;BME280;34313;50.780;6.084;2023-04-30T08:15:06;100135.09;;;31.44;24.02
9189;BME280;34313;50.780;6.084;2023-04-30T08:17:32;100128.69;;;30.57;25.01
9189;BME280;34313;50.780;6.084;2023-04-30T08:19:58;100124.72;;;30.59;24.59
9189;BME280;34313;50.780;6.084;2023-04-30T08:22:24;100123.88;;;30.59;24.57
9189;BME280;34313;50.780;6.084;2023-04-30T08:24:49;100121.69;;;31.36;24.30
9189;BME280;34313;50.780;6.084;2023-04-30T08:27:15;100126.50;;;30.94;23.91
9189;BME280;34313;50.780;6.084;2023-04-30T08:29:40;100114.94;;;28.75;24.83
9189;BME280;34313;50.780;6.084;2023-04-30T08:32:05;100113.28;;;30.15;24.35
9189;BME280;34313;50.780;6.084;2023-04-30T08:34:31;100116.00;;;29.52;24.63
9189;BME280;34313;50.780;6.084;2023-04-30T08:36:56;100125.00;;;29.53;24.47
9189;BME280;34313;50.780;6.084;2023-04-30T08:39:23;100117.38;;;29.41;24.11
9189;BME280;34313;50.780;6.084;2023-04-30T08:41:55;100115.09;;;26.32;28.04
9189;BME280;34313;50.780;6.084;2023-04-30T08:44:22;100123.78;;;27.05;27.27
9189;BME280;34313;50.780;6.084;2023-04-30T08:46:56;100124.69;;;26.03;28.38
9189;BME280;34313;50.780;6.084;2023-04-30T08:49:23;100118.03;;;25.17;29.61
9189;BME280;34313;50.780;6.084;2023-04-30T08:51:49;100114.50;;;25.41;29.10
9189;BME280;34313;50.780;6.084;2023-04-30T08:54:16;100110.00;;;26.69;27.72
9189;BME280;34313;50.780;6.084;2023-04-30T08:56:42;100114.28;;;27.24;27.19
9189;BME280;34313;50.780;6.084;2023-04-30T08:59:07;100113.69;;;26.05;28.06
9189;BME280;34313;50.780;6.084;2023-04-30T09:01:33;100109.03;;;25.82;28.26
9189;BME280;34313;50.780;6.084;2023-04-30T09:03:59;100113.00;;;25.06;28.99
9189;BME280;34313;50.780;6.084;2023-04-30T09:06:27;100112.22;;;24.46;28.92
9189;BME280;34313;50.780;6.084;2023-04-30T09:08:52;100120.84;;;22.39;32.17
9189;BME280;34313;50.780;6.084;2023-04-30T09:13:51;100110.56;;;23.24;30.63
9189;BME280;34313;50.780;6.084;2023-04-30T09:16:23;100111.75;;;23.48;30.57
9189;BME280;34313;50.780;6.084;2023-04-30T09:18:49;100106.97;;;23.41;31.51
9189;BME280;34313;50.780;6.084;2023-04-30T09:21:15;100100.56;;;24.38;28.68
9189;BME280;34313;50.780;6.084;2023-04-30T09:23:56;100097.75;;;23.70;29.82
9189;BME280;34313;50.780;6.084;2023-04-30T09:26:26;100093.44;;;24.79;28.62
9189;BME280;34313;50.780;6.084;2023-04-30T09:28:56;100105.84;;;23.44;30.52
9189;BME280;34313;50.780;6.084;2023-04-30T09:31:22;100092.25;;;24.14;29.91
9189;BME280;34313;50.780;6.084;2023-04-30T09:33:47;100092.22;;;24.06;30.17
9189;BME280;34313;50.780;6.084;2023-04-30T09:36:12;100093.31;;;21.99;31.94
9189;BME280;34313;50.780;6.084;2023-04-30T09:38:38;100106.38;;;20.78;34.60
9189;BME280;34313;50.780;6.084;2023-04-30T09:41:03;100090.38;;;19.88;36.93
9189;BME280;34313;50.780;6.084;2023-04-30T09:43:29;100100.84;;;20.51;36.09
9189;BME280;34313;50.780;6.084;2023-04-30T09:45:57;100097.66;;;20.76;35.72
9189;BME280;34313;50.780;6.084;2023-04-30T09:48:24;100096.09;;;20.64;35.79
9189;BME280;34313;50.780;6.084;2023-04-30T09:50:51;100088.66;;;20.77;36.43
9189;BME280;34313;50.780;6.084;2023-04-30T09:53:19;100088.41;;;20.30;35.99
9189;BME280;34313;50.780;6.084;2023-04-30T09:55:46;100086.03;;;19.87;37.54
9189;BME280;34313;50.780;6.084;2023-04-30T09:58:13;100086.63;;;20.00;36.85
9189;BME280;34313;50.780;6.084;2023-04-30T10:00:40;100099.72;;;19.20;37.62
9189;BME280;34313;50.780;6.084;2023-04-30T10:03:08;100098.88;;;19.20;37.36
9189;BME280;34313;50.780;6.084;2023-04-30T10:05:39;100087.03;;;19.64;37.36
9189;BME280;34313;50.780;6.084;2023-04-30T10:08:11;100088.09;;;19.52;36.53
9189;BME280;34313;50.780;6.084;2023-04-30T10:10:37;100087.78;;;18.71;36.42
9189;BME280;34313;50.780;6.084;2023-04-30T10:13:09;100080.03;;;18.36;37.29
9189;BME280;34313;50.780;6.084;2023-04-30T10:15:39;100085.91;;;17.95;37.74
9189;BME280;34313;50.780;6.084;2023-04-30T10:18:18;100093.19;;;18.48;37.99
9189;BME280;34313;50.780;6.084;2023-04-30T10:20:45;100090.94;;;18.21;38.52
9189;BME280;34313;50.780;6.084;2023-04-30T10:23:11;100081.38;;;18.19;38.54
9189;BME280;34313;50.780;6.084;2023-04-30T10:25:37;100078.91;;;18.38;37.96
9189;BME280;34313;50.780;6.084;2023-04-30T10:28:03;100069.13;;;18.60;37.32
9189;BME280;34313;50.780;6.084;2023-04-30T10:30:29;100071.84;;;19.13;35.90
9189;BME280;34313;50.780;6.084;2023-04-30T10:33:05;100071.38;;;18.87;35.68
9189;BME280;34313;50.780;6.084;2023-04-30T10:35:41;100069.94;;;18.83;36.44
9189;BME280;34313;50.780;6.084;2023-04-30T10:38:14;100065.06;;;18.77;36.10
9189;BME280;34313;50.780;6.084;2023-04-30T10:40:44;100071.25;;;18.77;35.82
9189;BME280;34313;50.780;6.084;2023-04-30T10:43:10;100066.69;;;18.36;35.80
9189;BME280;34313;50.780;6.084;2023-04-30T10:45:37;100059.72;;;18.01;35.89
9189;BME280;34313;50.780;6.084;2023-04-30T10:48:04;100062.97;;;17.82;36.73
9189;BME280;34313;50.780;6.084;2023-04-30T10:50:30;100060.44;;;17.46;37.43
9189;BME280;34313;50.780;6.084;2023-04-30T10:53:02;100053.47;;;17.21;38.30
9189;BME280;34313;50.780;6.084;2023-04-30T10:55:28;100049.97;;;17.32;38.36
9189;BME280;34313;50.780;6.084;2023-04-30T10:57:54;100039.94;;;17.13;37.24
9189;BME280;34313;50.780;6.084;2023-04-30T11:00:24;100040.66;;;17.26;37.50
9189;BME280;34313;50.780;6.084;2023-04-30T11:02:55;100042.56;;;17.01;37.85
9189;BME280;34313;50.780;6.084;2023-04-30T11:05:20;100034.06;;;16.96;38.55
9189;BME280;34313;50.780;6.084;2023-04-30T11:07:57;100036.84;;;16.95;37.51
9189;BME280;34313;50.780;6.084;2023-04-30T11:10:24;100034.25;;;16.82;37.61
9189;BME280;34313;50.780;6.084;2023-04-30T11:12:52;100027.66;;;16.99;37.91
9189;BME280;34313;50.780;6.084;2023-04-30T11:15:20;100022.84;;;17.04;38.44
9189;BME280;34313;50.780;6.084;2023-04-30T11:17:47;100021.03;;;16.80;39.25
9189;BME280;34313;50.780;6.084;2023-04-30T11:20:18;100030.06;;;17.02;40.30
9189;BME280;34313;50.780;6.084;2023-04-30T11:22:44;100017.13;;;17.09;38.89
9189;BME280;34313;50.780;6.084;2023-04-30T11:25:17;100015.50;;;17.30;37.82
9189;BME280;34313;50.780;6.084;2023-04-30T11:27:44;100014.03;;;17.49;37.63
9189;BME280;34313;50.780;6.084;2023-04-30T11:30:14;100011.59;;;17.46;38.35
9189;BME280;34313;50.780;6.084;2023-04-30T11:32:42;100015.19;;;16.99;38.67
9189;BME280;34313;50.780;6.084;2023-04-30T11:35:08;99998.13;;;16.67;40.04
9189;BME280;34313;50.780;6.084;2023-04-30T11:37:36;100013.16;;;16.68;40.57
9189;BME280;34313;50.780;6.084;2023-04-30T11:40:09;100003.66;;;16.88;39.79
9189;BME280;34313;50.780;6.084;2023-04-30T11:42:38;100001.78;;;16.66;40.63
9189;BME280;34313;50.780;6.084;2023-04-30T11:45:09;99989.94;;;16.81;41.39
9189;BME280;34313;50.780;6.084;2023-04-30T11:47:48;99999.91;;;16.55;41.44
9189;BME280;34313;50.780;6.084;2023-04-30T11:50:18;99992.53;;;16.58;42.85
9189;BME280;34313;50.780;6.084;2023-04-30T11:52:49;99997.09;;;16.45;43.67
9189;BME280;34313;50.780;6.084;2023-04-30T11:55:17;99988.22;;;16.69;43.43
9189;BME280;34313;50.780;6.084;2023-04-30T11:57:43;99990.78;;;17.17;43.11
9189;BME280;34313;50.780;6.084;2023-04-30T12:00:14;99991.84;;;17.37;42.23
9189;BME280;34313;50.780;6.084;2023-04-30T12:02:45;100004.81;;;17.08;41.84
9189;BME280;34313;50.780;6.084;2023-04-30T12:05:12;99987.16;;;16.82;42.50
9189;BME280;34313;50.780;6.084;2023-04-30T12:07:38;99989.56;;;17.10;41.53
9189;BME280;34313;50.780;6.084;2023-04-30T12:10:04;99993.41;;;16.94;42.74
9189;BME280;34313;50.780;6.084;2023-04-30T12:12:30;99984.81;;;16.91;42.87
9189;BME280;34313;50.780;6.084;2023-04-30T12:14:56;99981.41;;;17.00;42.35
9189;BME280;34313;50.780;6.084;2023-04-30T12:17:32;99978.44;;;17.27;42.07
9189;BME280;34313;50.780;6.084;2023-04-30T12:19:58;99973.56;;;17.10;42.03
9189;BME280;34313;50.780;6.084;2023-04-30T12:22:24;99970.81;;;17.11;41.99
9189;BME280;34313;50.780;6.084;2023-04-30T12:24:49;99977.09;;;17.22;42.00
9189;BME280;34313;50.780;6.084;2023-04-30T12:27:14;99963.66;;;17.34;41.92
9189;BME280;34313;50.780;6.084;2023-04-30T12:29:43;99967.88;;;17.60;41.80
9189;BME280;34313;50.780;6.084;2023-04-30T12:32:13;99968.94;;;17.80;41.02
9189;BME280;34313;50.780;6.084;2023-04-30T12:34:42;99962.94;;;17.32;41.82
9189;BME280;34313;50.780;6.084;2023-04-30T12:37:07;99955.66;;;17.00;42.24
9189;BME280;34313;50.780;6.084;2023-04-30T12:39:34;99970.69;;;17.24;42.07
9189;BME280;34313;50.780;6.084;2023-04-30T12:41:59;99965.94;;;17.28;42.48
9189;BME280;34313;50.780;6.084;2023-04-30T12:44:26;99962.91;;;17.55;41.77
9189;BME280;34313;50.780;6.084;2023-04-30T12:46:56;99966.00;;;17.83;41.42
9189;BME280;34313;50.780;6.084;2023-04-30T12:49:28;99949.44;;;17.68;41.38
9189;BME280;34313;50.780;6.084;2023-04-30T12:51:58;99961.28;;;17.98;41.11
9189;BME280;34313;50.780;6.084;2023-04-30T12:54:29;99956.88;;;17.42;41.09
9189;BME280;34313;50.780;6.084;2023-04-30T12:57:09;99962.66;;;17.58;41.81
9189;BME280;34313;50.780;6.084;2023-04-30T12:59:55;99964.72;;;17.88;41.36
9189;BME280;34313;50.780;6.084;2023-04-30T13:02:22;99952.47;;;17.63;40.54
9189;BME280;34313;50.780;6.084;2023-04-30T13:04:48;99944.75;;;17.26;41.42
9189;BME280;34313;50.780;6.084;2023-04-30T13:07:14;99937.97;;;17.45;41.27
9189;BME280;34313;50.780;6.084;2023-04-30T13:09:39;99936.59;;;17.73;40.22
9189;BME280;34313;50.780;6.084;2023-04-30T13:12:05;99930.28;;;18.18;39.97
9189;BME280;34313;50.780;6.084;2023-04-30T13:14:31;99931.63;;;18.44;40.16
9189;BME280;34313;50.780;6.084;2023-04-30T13:16:57;99932.56;;;18.22;40.28